Time;durP1;ratioP1;P1;durP2;ratioP2;P2;SDS_P1;SDS_P2;PMS_P1;PMS_P2;Temp;Humidity;BMP_temperature;BMP_pressure;BME280_temperature;BME280_humidity;BME280_pressure;Samples;Min_cycle;Max_cycle;Signal;HPM_P1;HPM_P2
2022/06/15 00:00:37;;;;;;;3.85;2.38;;;;;;;23.40;36.66;99984.06;4976613;28;20213;-86
2022/06/15 00:03:04;;;;;;;5.03;2.13;;;;;;;23.35;36.68;99983.88;4981847;28;20136;-86
2022/06/15 00:05:31;;;;;;;4.13;2.75;;;;;;;23.33;36.94;99985.13;4981836;28;20188;-86
2022/06/15 00:07:58;;;;;;;3.40;2.30;;;;;;;23.29;36.95;99995.59;4966596;28;20045;-82
2022/06/15 00:10:25;;;;;;;3.08;2.20;;;;;;;23.24;36.89;99992.69;4954417;28;20446;-83
2022/06/15 00:12:52;;;;;;;3.33;2.42;;;;;;;23.19;38.08;99998.75;4983261;28;20117;-83
2022/06/15 00:15:19;;;;;;;3.85;2.30;;;;;;;23.16;37.41;99992.94;4965368;28;20506;-83
2022/06/15 00:17:48;;;;;;;5.40;2.65;;;;;;;23.13;37.33;99994.19;4952698;28;20165;-82
2022/06/15 00:20:14;;;;;;;2.78;2.20;;;;;;;23.11;37.36;99990.88;4963525;28;20049;-85
2022/06/15 00:22:41;;;;;;;4.45;2.85;;;;;;;23.10;37.18;99989.22;4976711;28;20062;-85
2022/06/15 00:25:09;;;;;;;4.00;2.55;;;;;;;23.10;37.13;99991.94;4937378;28;20109;-92
2022/06/15 00:27:35;;;;;;;4.78;2.65;;;;;;;23.10;37.16;99986.50;4949629;28;20053;-83
2022/06/15 00:30:06;;;;;;;3.72;2.58;;;;;;;23.08;37.17;99985.06;4952840;28;20137;-82
2022/06/15 00:32:33;;;;;;;3.20;2.10;;;;;;;23.07;37.30;99986.91;4999543;28;20057;-82
2022/06/15 00:35:00;;;;;;;3.45;2.28;;;;;;;23.03;37.28;99980.28;4971821;28;20058;-86
2022/06/15 00:37:27;;;;;;;4.03;2.28;;;;;;;23.00;37.89;99977.16;4978166;28;20041;-85
2022/06/15 00:39:54;;;;;;;4.43;2.83;;;;;;;22.96;37.37;99972.13;4950307;28;20096;-86
2022/06/15 00:42:21;;;;;;;2.70;2.50;;;;;;;22.95;38.05;99972.38;4993704;28;20045;-91
2022/06/15 00:44:49;;;;;;;4.65;3.13;;;;;;;22.93;39.66;99972.56;4971019;28;20126;-91
2022/06/15 00:47:22;;;;;;;4.80;2.65;;;;;;;22.90;40.12;99975.72;4957440;28;20097;-92
2022/06/15 00:49:57;;;;;;;5.68;2.88;;;;;;;22.84;40.69;99975.72;4967633;28;20550;-92
2022/06/15 00:52:32;;;;;;;5.82;2.80;;;;;;;22.79;39.53;99964.69;4970989;28;20064;-92
2022/06/15 00:55:03;;;;;;;4.45;2.53;;;;;;;22.75;38.49;99967.81;4988215;28;20090;-92
2022/06/15 01:02:08;;;;;;;4.90;2.60;;;;;;;22.74;38.28;99970.72;4985609;28;20037;-85
2022/06/15 01:04:48;;;;;;;3.80;2.42;;;;;;;22.69;38.43;99976.78;4962268;28;20049;-86
2022/06/15 01:07:32;;;;;;;4.65;2.40;;;;;;;22.70;38.12;99974.94;4967899;28;20451;-86
2022/06/15 01:10:19;;;;;;;3.40;2.60;;;;;;;22.66;38.69;99968.25;4959553;28;20049;-86
2022/06/15 01:13:06;;;;;;;6.55;2.17;;;;;;;22.64;38.50;99967.63;4952474;28;20044;-86
2022/06/15 01:15:56;;;;;;;3.88;2.85;;;;;;;22.59;38.22;99962.03;4967014;28;20486;-86
2022/06/15 01:18:38;;;;;;;3.28;2.10;;;;;;;22.58;38.23;99961.19;4979153;28;20077;-86
2022/06/15 01:21:24;;;;;;;5.00;2.38;;;;;;;22.55;38.06;99961.63;4950343;28;20448;-86
2022/06/15 01:24:05;;;;;;;3.83;2.28;;;;;;;22.50;38.13;99954.13;4968452;28;20048;-87
2022/06/15 01:27:02;;;;;;;3.97;2.50;;;;;;;22.45;37.97;99945.81;4945016;28;20057;-86
2022/06/15 01:29:59;;;;;;;2.83;2.40;;;;;;;22.43;37.87;99945.19;4936073;28;20505;-86
2022/06/15 01:32:37;;;;;;;5.93;2.38;;;;;;;22.44;37.86;99936.03;4982645;28;20052;-86
2022/06/15 01:35:11;;;;;;;4.20;2.65;;;;;;;22.43;38.10;99945.19;4968616;28;20467;-92
2022/06/15 01:37:47;;;;;;;4.63;3.00;;;;;;;22.40;38.50;99933.97;4994320;28;20105;-85
2022/06/15 01:40:14;;;;;;;3.63;2.17;;;;;;;22.40;38.42;99940.19;4978688;28;20534;-85
2022/06/15 01:42:59;;;;;;;3.00;2.40;;;;;;;22.37;38.40;99948.75;4957622;28;20044;-85
2022/06/15 01:45:28;;;;;;;4.85;2.50;;;;;;;22.36;38.13;99940.81;4966766;28;20387;-85
2022/06/15 01:47:58;;;;;;;4.22;2.70;;;;;;;22.33;37.99;99950.19;4951837;28;20046;-86
2022/06/15 01:50:27;;;;;;;2.35;2.15;;;;;;;22.30;37.82;99951.44;4951781;28;20635;-87
2022/06/15 01:53:08;;;;;;;3.53;2.35;;;;;;;22.27;37.81;99949.16;4985694;28;20084;-82
2022/06/15 01:56:13;;;;;;;3.72;2.47;;;;;;;22.22;38.26;99951.66;4934688;28;20049;-82
2022/06/15 01:58:41;;;;;;;6.65;2.75;;;;;;;22.20;38.06;99940.22;4919608;28;20048;-82
2022/06/15 02:01:13;;;;;;;5.00;2.30;;;;;;;22.18;37.89;99933.31;4964480;28;20660;-83
2022/06/15 02:03:54;;;;;;;4.68;2.30;;;;;;;22.18;38.12;99938.72;4969650;28;20053;-82
2022/06/15 02:06:33;;;;;;;3.17;2.38;;;;;;;22.10;38.04;99928.97;4951241;28;20050;-82
2022/06/15 02:09:05;;;;;;;3.50;2.35;;;;;;;22.09;38.21;99938.13;4975441;28;20133;-83
2022/06/15 02:11:38;;;;;;;4.80;2.80;;;;;;;22.03;38.31;99938.94;4978028;28;20038;-82
2022/06/15 02:14:13;;;;;;;3.95;2.85;;;;;;;22.01;38.44;99939.16;4964388;28;20046;-82
2022/06/15 02:16:55;;;;;;;5.50;2.35;;;;;;;21.95;38.46;99928.34;4998790;28;20053;-82
2022/06/15 02:19:32;;;;;;;2.92;2.20;;;;;;;21.88;38.51;99931.88;4959499;28;20042;-83
2022/06/15 02:22:06;;;;;;;3.40;2.17;;;;;;;21.85;38.64;99929.59;4920163;28;20070;-82
2022/06/15 02:24:34;;;;;;;5.60;2.40;;;;;;;21.83;38.66;99926.28;4899322;28;20118;-86
2022/06/15 02:27:03;;;;;;;5.07;2.38;;;;;;;21.80;38.59;99923.94;4930903;28;20078;-85
2022/06/15 02:29:34;;;;;;;4.75;2.40;;;;;;;21.76;38.43;99930.00;4946321;28;20482;-85
2022/06/15 02:36:25;;;;;;;6.75;2.40;;;;;;;21.68;38.52;99933.75;4914770;29;20048;-94
2022/06/15 02:38:53;;;;;;;5.00;2.40;;;;;;;21.64;38.58;99927.06;4925708;28;20051;-94
2022/06/15 02:41:27;;;;;;;2.78;2.25;;;;;;;21.63;38.83;99928.94;4913235;28;20043;-93
2022/06/15 02:43:58;;;;;;;4.38;2.60;;;;;;;21.61;38.92;99930.19;4897151;29;20147;-93
2022/06/15 02:46:26;;;;;;;4.05;2.42;;;;;;;21.59;38.87;99933.09;4894202;28;20056;-93
2022/06/15 02:48:55;;;;;;;3.65;2.40;;;;;;;21.57;38.78;99934.31;4898276;28;20051;-85
2022/06/15 02:51:33;;;;;;;3.75;2.60;;;;;;;21.51;38.69;99945.97;4878387;29;20059;-84
2022/06/15 02:54:07;;;;;;;4.57;2.25;;;;;;;21.46;38.59;99947.41;4940658;28;20050;-85
2022/06/15 02:56:36;;;;;;;4.00;2.40;;;;;;;21.46;38.90;99939.28;4932106;28;20527;-85
2022/06/15 02:59:03;;;;;;;3.95;2.55;;;;;;;21.44;39.07;99949.47;4934505;28;20065;-85
2022/06/15 03:01:37;;;;;;;4.38;2.90;;;;;;;21.39;39.53;99951.94;4916351;28;20058;-86
2022/06/15 03:04:04;;;;;;;5.18;2.72;;;;;;;21.34;39.52;99954.38;4946897;28;20049;-85
2022/06/15 03:06:36;;;;;;;4.38;2.53;;;;;;;21.29;39.53;99953.34;4953216;28;20456;-90
2022/06/15 03:09:08;;;;;;;4.18;2.70;;;;;;;21.24;39.52;99953.94;4937206;28;20050;-89
2022/06/15 03:11:40;;;;;;;3.72;2.80;;;;;;;21.21;39.50;99959.75;4953002;28;20054;-86
2022/06/15 03:14:29;;;;;;;2.85;2.40;;;;;;;21.18;39.60;99954.75;4952928;28;20129;-86
2022/06/15 03:16:59;;;;;;;3.83;2.42;;;;;;;21.12;39.84;99956.41;4962768;28;20500;-85
2022/06/15 03:19:38;;;;;;;4.90;2.60;;;;;;;21.08;39.74;99957.84;4942049;28;20490;-86
2022/06/15 03:22:05;;;;;;;3.65;2.53;;;;;;;21.06;40.18;99954.50;4966948;28;20050;-90
2022/06/15 03:24:35;;;;;;;4.05;2.53;;;;;;;21.03;40.08;99952.22;4966455;28;20049;-90
2022/06/15 03:27:04;;;;;;;3.58;2.33;;;;;;;21.00;40.06;99949.91;4967402;28;20427;-91
2022/06/15 03:29:33;;;;;;;3.30;2.53;;;;;;;20.99;40.23;99949.09;4951638;28;20053;-90
2022/06/15 03:32:07;;;;;;;3.70;2.38;;;;;;;20.96;40.21;99940.53;4957079;28;20105;-90
2022/06/15 03:35:12;;;;;;;3.08;2.30;;;;;;;20.92;40.47;99942.81;4975648;28;20128;-86
2022/06/15 03:47:17;;;;;;;4.07;2.40;;;;;;;21.85;39.68;99951.22;4985129;28;20033;-83
2022/06/15 03:49:48;;;;;;;24.80;3.67;;;;;;;21.99;39.31;99946.66;4953766;28;20088;-86
2022/06/15 03:52:16;;;;;;;7.35;2.90;;;;;;;22.15;38.80;99941.88;4987788;28;20045;-88
2022/06/15 03:54:43;;;;;;;3.22;2.60;;;;;;;22.25;38.73;99942.31;4986694;28;20049;-87
2022/06/15 03:57:15;;;;;;;4.80;2.92;;;;;;;22.26;38.47;99946.66;4980061;28;20045;-89
2022/06/15 03:59:42;;;;;;;4.80;2.87;;;;;;;22.35;38.47;99948.13;4988632;28;20433;-87
2022/06/15 04:02:32;;;;;;;8.40;2.60;;;;;;;22.41;37.95;99938.31;4949820;28;20070;-87
2022/06/15 04:05:02;;;;;;;6.03;3.40;;;;;;;22.44;38.47;99944.16;4995353;28;20395;-87
2022/06/15 04:10:15;;;;;;;5.07;3.20;;;;;;;22.56;38.32;99949.75;4930640;28;20050;-87
2022/06/15 04:12:44;;;;;;;6.88;3.38;;;;;;;22.63;37.88;99947.03;4951480;28;20450;-86
2022/06/15 04:15:15;;;;;;;5.68;3.20;;;;;;;22.65;37.71;99937.66;4971271;28;20069;-89
2022/06/15 04:17:45;;;;;;;7.03;3.35;;;;;;;22.70;37.44;99943.28;4978471;28;20046;-89
2022/06/15 04:20:36;;;;;;;4.07;3.03;;;;;;;22.72;37.68;99946.59;4935026;28;20072;-89
2022/06/15 04:23:16;;;;;;;8.93;3.25;;;;;;;22.77;37.33;99945.97;4958531;28;20042;-89
2022/06/15 04:25:52;;;;;;;4.10;3.33;;;;;;;22.75;37.65;99939.94;4974682;28;20050;-89
2022/06/15 04:28:31;;;;;;;3.67;2.90;;;;;;;22.77;38.00;99943.25;4976945;28;20128;-85
2022/06/15 04:31:04;;;;;;;5.43;3.72;;;;;;;22.85;37.84;99951.16;4942434;28;20061;-81
2022/06/15 04:33:35;;;;;;;4.60;3.22;;;;;;;22.83;37.64;99941.56;4959755;28;20084;-81
2022/06/15 04:36:03;;;;;;;4.35;3.00;;;;;;;22.85;38.14;99951.16;4957472;28;20050;-81
2022/06/15 04:38:30;;;;;;;5.20;3.17;;;;;;;22.90;37.82;99954.03;4958456;28;20053;-85
2022/06/15 04:41:05;;;;;;;5.93;3.53;;;;;;;22.87;37.51;99954.47;4957713;28;20049;-88
2022/06/15 04:43:32;;;;;;;5.38;3.53;;;;;;;22.85;37.36;99953.03;4955024;28;20438;-88
2022/06/15 04:46:00;;;;;;;4.72;3.58;;;;;;;22.77;37.60;99948.69;4965469;28;21066;-88
2022/06/15 04:48:28;;;;;;;5.60;3.58;;;;;;;22.77;37.58;99951.38;4947333;28;20109;-88
2022/06/15 04:50:56;;;;;;;5.03;3.55;;;;;;;22.80;38.04;99958.25;4977380;28;20397;-88
2022/06/15 04:53:30;;;;;;;10.13;3.47;;;;;;;22.76;38.19;99961.34;4947403;28;20050;-88
2022/06/15 04:55:57;;;;;;;6.30;4.05;;;;;;;22.77;38.00;99954.09;4966916;28;20065;-88
2022/06/15 04:58:24;;;;;;;5.35;3.60;;;;;;;22.67;37.73;99956.38;4952592;28;20042;-86
2022/06/15 05:00:58;;;;;;;6.75;3.30;;;;;;;22.59;37.80;99959.31;4962623;28;20124;-84
2022/06/15 05:03:25;;;;;;;6.35;3.38;;;;;;;22.50;37.51;99954.13;4951303;28;20485;-84
2022/06/15 05:05:56;;;;;;;4.47;3.28;;;;;;;22.37;38.15;99953.34;4971407;28;20050;-83
2022/06/15 05:08:25;;;;;;;4.70;3.60;;;;;;;22.32;37.93;99962.91;4963208;28;20089;-88
2022/06/15 05:10:54;;;;;;;5.60;3.10;;;;;;;22.24;38.20;99957.72;4974934;28;20097;-88
2022/06/15 05:13:21;;;;;;;5.85;3.03;;;;;;;22.12;38.71;99953.94;4945281;28;20046;-88
2022/06/15 05:15:50;;;;;;;4.38;3.08;;;;;;;22.10;38.60;99954.13;4964466;28;20050;-87
2022/06/15 05:18:17;;;;;;;6.57;3.20;;;;;;;21.86;38.78;99954.75;4984141;28;20058;-88
2022/06/15 05:20:46;;;;;;;7.72;3.40;;;;;;;21.86;38.93;99960.16;4958220;28;20425;-83
2022/06/15 05:23:18;;;;;;;5.63;3.70;;;;;;;21.93;38.70;99960.16;4950922;28;20490;-87
2022/06/15 05:26:03;;;;;;;5.00;3.33;;;;;;;21.96;38.99;99954.34;4979142;28;20038;-89
2022/06/15 05:28:32;;;;;;;6.93;3.60;;;;;;;22.03;38.70;99958.72;4947517;28;20054;-84
2022/06/15 05:31:05;;;;;;;4.95;3.50;;;;;;;22.00;38.70;99952.88;4951011;28;20037;-84
2022/06/15 05:33:34;;;;;;;6.45;3.25;;;;;;;22.01;38.68;99955.38;4987171;28;20426;-83
2022/06/15 05:36:10;;;;;;;6.78;3.78;;;;;;;22.06;39.16;99955.59;4953800;28;20042;-84
2022/06/15 05:38:37;;;;;;;6.38;3.35;;;;;;;22.07;39.03;99951.84;4960559;28;20043;-83
2022/06/15 05:41:04;;;;;;;6.03;3.15;;;;;;;22.08;39.29;99947.25;4969960;28;20072;-83
2022/06/15 05:43:35;;;;;;;6.63;3.40;;;;;;;22.12;38.64;99951.22;4964413;28;20070;-87
2022/06/15 05:46:26;;;;;;;9.82;3.70;;;;;;;22.02;39.73;99957.03;4963630;28;20096;-91
2022/06/15 05:48:59;;;;;;;7.43;3.30;;;;;;;21.86;39.64;99946.66;4967518;28;20041;-91
2022/06/15 05:51:28;;;;;;;7.00;3.50;;;;;;;21.78;39.90;99952.22;4953063;28;20053;-92
2022/06/15 05:53:55;;;;;;;7.97;3.55;;;;;;;21.70;40.19;99957.84;4966732;28;20046;-91
2022/06/15 05:56:23;;;;;;;7.88;4.00;;;;;;;21.74;40.08;99946.41;4953602;28;20048;-87
2022/06/15 05:58:50;;;;;;;6.28;3.65;;;;;;;21.74;39.91;99951.00;4965031;28;20461;-88
2022/06/15 06:01:28;;;;;;;8.45;3.63;;;;;;;21.76;40.48;99954.34;4981620;28;20049;-88
2022/06/15 06:03:55;;;;;;;7.38;3.55;;;;;;;21.82;40.48;99961.59;4980579;28;20046;-88
2022/06/15 06:06:22;;;;;;;7.80;3.50;;;;;;;21.70;40.60;99953.25;4969362;28;20490;-86
2022/06/15 06:08:49;;;;;;;5.00;3.20;;;;;;;21.78;40.99;99954.94;4952726;28;20061;-88
2022/06/15 06:11:16;;;;;;;7.40;3.58;;;;;;;21.91;40.66;99954.16;4966582;28;20580;-87
2022/06/15 06:13:43;;;;;;;4.45;3.28;;;;;;;21.97;41.07;99950.59;4979709;28;22286;-88
2022/06/15 06:16:18;;;;;;;5.10;3.58;;;;;;;21.87;41.13;99956.41;4995729;28;20586;-88
2022/06/15 06:18:45;;;;;;;6.75;3.70;;;;;;;21.96;40.78;99951.66;4977085;28;20039;-88
2022/06/15 06:21:12;;;;;;;8.85;3.58;;;;;;;21.89;41.19;99949.75;4973733;28;20497;-91
2022/06/15 06:23:38;;;;;;;6.05;3.70;;;;;;;21.94;41.12;99942.91;4983336;28;20046;-92
2022/06/15 06:26:05;;;;;;;4.60;3.47;;;;;;;22.01;41.24;99947.28;4977051;28;20054;-87
2022/06/15 06:28:35;;;;;;;9.43;3.80;;;;;;;21.97;41.36;99946.00;4953332;28;20045;-90
2022/06/15 06:31:03;;;;;;;10.57;3.72;;;;;;;22.04;41.40;99944.16;4984383;28;20046;-87
2022/06/15 06:33:33;;;;;;;6.75;3.30;;;;;;;22.07;41.37;99946.44;4968673;28;20101;-87
2022/06/15 06:36:06;;;;;;;4.55;3.22;;;;;;;22.01;41.43;99944.56;4952660;28;20584;-92
2022/06/15 06:38:33;;;;;;;4.07;3.67;;;;;;;22.10;41.67;99937.06;4952513;28;20094;-84
2022/06/15 06:41:00;;;;;;;5.85;3.63;;;;;;;22.19;41.85;99943.97;4945839;28;20042;-91
2022/06/15 06:43:27;;;;;;;5.03;3.40;;;;;;;22.26;41.60;99942.09;4960248;28;20494;-85
2022/06/15 06:45:54;;;;;;;8.40;3.95;;;;;;;22.22;41.74;99945.44;4984345;28;20457;-88
2022/06/15 06:48:21;;;;;;;6.07;3.70;;;;;;;22.24;41.60;99940.66;4973689;28;20035;-84
2022/06/15 06:50:48;;;;;;;5.47;3.75;;;;;;;22.23;42.16;99939.78;4973577;28;20053;-88
2022/06/15 06:53:15;;;;;;;6.30;3.95;;;;;;;22.21;42.18;99952.72;4954881;28;20077;-88
2022/06/15 06:55:42;;;;;;;6.10;3.95;;;;;;;22.29;42.27;99946.25;4979136;28;20050;-88
2022/06/15 06:58:08;;;;;;;11.05;3.90;;;;;;;22.31;42.48;99936.91;4968137;28;20077;-89
2022/06/15 07:00:36;;;;;;;7.95;3.83;;;;;;;22.37;42.25;99942.50;4976522;28;20423;-88
2022/06/15 07:03:06;;;;;;;6.28;3.90;;;;;;;22.38;42.22;99936.03;4980026;28;20072;-91
2022/06/15 07:05:35;;;;;;;6.88;4.38;;;;;;;22.52;42.13;99938.53;4983715;28;20053;-91
2022/06/15 07:08:02;;;;;;;5.03;4.05;;;;;;;22.57;42.45;99942.44;4976928;28;20046;-89
2022/06/15 07:10:29;;;;;;;5.82;3.50;;;;;;;22.60;42.44;99951.00;4966289;28;20125;-89
2022/06/15 07:12:56;;;;;;;6.25;4.07;;;;;;;22.61;42.63;99943.69;4957761;28;20379;-89
2022/06/15 07:15:23;;;;;;;6.60;3.97;;;;;;;22.70;42.43;99937.84;4988381;28;20803;-90
2022/06/15 07:17:50;;;;;;;7.95;4.13;;;;;;;22.89;42.66;99943.41;4989302;28;20045;-91
2022/06/15 07:20:18;;;;;;;5.57;3.92;;;;;;;22.96;42.16;99941.53;4975239;28;20136;-91
2022/06/15 07:22:45;;;;;;;5.75;4.03;;;;;;;22.98;42.20;99936.75;4971426;28;20794;-91
2022/06/15 07:25:12;;;;;;;9.70;4.30;;;;;;;23.04;42.53;99940.47;4980776;28;20068;-91
2022/06/15 07:27:40;;;;;;;9.80;4.20;;;;;;;23.12;42.08;99937.53;4950065;28;20045;-91
2022/06/15 07:30:09;;;;;;;8.65;4.10;;;;;;;23.20;41.80;99939.97;4970469;28;20491;-90
2022/06/15 07:32:38;;;;;;;9.57;4.20;;;;;;;23.25;41.69;99936.63;4978743;28;20071;-90
2022/06/15 07:35:06;;;;;;;7.50;4.38;;;;;;;23.25;41.88;99934.75;4970033;28;20386;-88
2022/06/15 07:37:33;;;;;;;5.75;3.85;;;;;;;23.26;42.01;99932.88;4984011;28;20046;-88
2022/06/15 07:40:23;;;;;;;4.35;3.78;;;;;;;23.33;41.92;99934.50;4979845;28;20045;-88
2022/06/15 07:42:52;;;;;;;4.90;4.15;;;;;;;23.43;41.75;99931.31;4956750;28;20406;-89
2022/06/15 07:45:21;;;;;;;7.38;4.50;;;;;;;23.55;42.13;99926.03;4970856;28;20046;-84
2022/06/15 07:50:34;;;;;;;5.10;4.13;;;;;;;23.63;41.80;99923.06;4949484;28;20046;-84
2022/06/15 07:56:51;;;;;;;8.77;4.78;;;;;;;23.67;41.73;99923.47;4924497;28;20052;-84
2022/06/15 07:59:18;;;;;;;8.30;4.30;;;;;;;23.66;41.38;99924.50;4994935;28;20046;-85
2022/06/15 08:01:45;;;;;;;6.82;4.38;;;;;;;23.69;41.85;99922.19;4973429;28;20379;-85
2022/06/15 08:04:13;;;;;;;6.53;4.20;;;;;;;23.73;41.62;99928.03;4969794;28;20050;-85
2022/06/15 08:06:43;;;;;;;8.50;4.38;;;;;;;23.79;41.60;99922.56;4970612;28;20387;-85
2022/06/15 08:09:11;;;;;;;11.27;5.05;;;;;;;23.79;40.91;99925.28;4972380;28;20072;-86
2022/06/15 08:16:05;;;;;;;5.20;4.57;;;;;;;23.81;41.15;99923.19;4966172;28;20033;-86
2022/06/15 08:18:35;;;;;;;6.75;4.35;;;;;;;23.84;41.20;99919.19;4982966;28;20057;-87
2022/06/15 08:21:05;;;;;;;6.95;4.43;;;;;;;23.90;41.29;99920.19;4953952;28;20050;-87
2022/06/15 08:23:59;;;;;;;8.18;4.30;;;;;;;23.88;40.48;99917.69;4937593;28;21510;-87
2022/06/15 08:26:30;;;;;;;8.40;4.45;;;;;;;24.00;40.48;99913.22;4972511;28;20393;-88
2022/06/15 08:28:59;;;;;;;5.85;4.40;;;;;;;24.05;40.49;99913.38;4958461;28;20112;-87
2022/06/15 08:31:26;;;;;;;9.05;4.47;;;;;;;24.03;41.43;99914.66;4952423;28;20042;-90
2022/06/15 08:33:53;;;;;;;7.68;4.70;;;;;;;24.06;41.17;99911.50;4967990;28;20101;-91
2022/06/15 08:36:21;;;;;;;8.00;4.60;;;;;;;24.11;41.56;99916.25;4956936;28;20137;-86
2022/06/15 08:38:47;;;;;;;10.00;4.72;;;;;;;24.13;41.67;99916.88;4953821;28;20045;-84
2022/06/15 08:41:25;;;;;;;8.35;4.50;;;;;;;24.07;41.40;99915.03;4982146;28;20049;-85
2022/06/15 08:43:55;;;;;;;7.40;4.50;;;;;;;24.15;41.74;99921.03;4936733;28;20042;-84
2022/06/15 08:46:34;;;;;;;7.53;4.78;;;;;;;24.14;40.28;99916.63;4979709;28;20482;-85
2022/06/15 08:49:27;;;;;;;8.25;4.28;;;;;;;24.26;40.59;99903.16;4965705;28;20077;-85
2022/06/15 08:52:05;;;;;;;6.82;3.90;;;;;;;24.25;40.27;99905.06;4961518;28;20076;-84
2022/06/15 08:54:40;;;;;;;9.02;4.47;;;;;;;24.37;40.86;99902.41;4948898;28;20042;-89
2022/06/15 08:57:24;;;;;;;6.20;4.90;;;;;;;24.44;41.57;99907.78;4965705;28;20047;-84
2022/06/15 09:00:03;;;;;;;8.40;4.85;;;;;;;24.43;40.77;99903.44;4953618;28;20038;-84
2022/06/15 09:03:13;;;;;;;6.93;4.13;;;;;;;24.45;40.82;99904.03;4952081;28;20098;-85
2022/06/15 09:05:59;;;;;;;9.18;4.60;;;;;;;24.42;40.16;99913.44;4961813;28;20042;-88
2022/06/15 09:08:47;;;;;;;9.63;4.43;;;;;;;24.51;40.29;99908.59;4973175;28;20049;-89
2022/06/15 09:11:29;;;;;;;5.65;3.92;;;;;;;24.54;40.54;99912.75;4957157;28;20042;-90
2022/06/15 09:14:23;;;;;;;7.00;4.25;;;;;;;24.55;39.70;99901.66;4972821;28;20045;-89
2022/06/15 09:16:58;;;;;;;7.85;4.30;;;;;;;24.63;39.21;99901.34;4954984;28;20543;-87
2022/06/15 09:19:33;;;;;;;9.13;4.40;;;;;;;24.61;39.34;99892.59;4970637;28;20545;-91
2022/06/15 09:22:04;;;;;;;7.28;3.85;;;;;;;24.76;39.15;99908.53;4986319;28;20060;-87
2022/06/15 09:24:47;;;;;;;9.00;4.47;;;;;;;24.79;39.57;99907.25;4970120;28;20046;-91
2022/06/15 09:27:26;;;;;;;5.15;3.90;;;;;;;24.77;39.94;99907.44;4933340;28;20046;-91
2022/06/15 09:29:59;;;;;;;7.50;4.15;;;;;;;24.84;39.94;99907.38;4954207;28;20049;-90
2022/06/15 09:32:35;;;;;;;6.15;4.20;;;;;;;24.84;39.89;99904.66;4962039;28;20050;-85
2022/06/15 09:35:16;;;;;;;9.18;3.70;;;;;;;24.86;38.89;99903.38;4963699;28;20133;-85
2022/06/15 09:37:50;;;;;;;7.43;4.55;;;;;;;24.95;39.75;99905.78;4983101;28;20544;-85
2022/06/15 09:40:18;;;;;;;8.93;4.43;;;;;;;25.03;39.36;99902.75;4963909;28;20041;-91
2022/06/15 09:43:15;;;;;;;13.32;4.60;;;;;;;24.98;38.86;99905.31;4977868;28;20441;-91
2022/06/15 09:45:41;;;;;;;8.50;4.72;;;;;;;25.03;39.20;99902.75;4980796;28;20529;-90
2022/06/15 09:48:18;;;;;;;7.05;4.38;;;;;;;25.05;39.41;99903.34;4948144;28;20121;-91
2022/06/15 09:50:54;;;;;;;9.35;4.60;;;;;;;25.02;40.30;99907.34;4966180;28;20386;-91
2022/06/15 09:53:39;;;;;;;8.43;3.88;;;;;;;25.08;39.95;99895.56;4964355;28;20405;-90
2022/06/15 09:56:10;;;;;;;4.95;4.30;;;;;;;25.22;39.50;99898.16;4983144;28;20050;-91
2022/06/15 09:58:55;;;;;;;9.35;4.22;;;;;;;25.16;39.19;99897.16;4963067;28;20043;-91
2022/06/15 10:01:28;;;;;;;10.93;4.32;;;;;;;25.22;38.54;99898.16;4956528;28;20411;-90
2022/06/15 10:03:57;;;;;;;5.38;4.55;;;;;;;25.24;38.98;99902.31;4957594;28;20045;-87
2022/06/15 10:06:25;;;;;;;5.15;4.15;;;;;;;25.22;39.69;99893.53;4991641;28;20687;-91
2022/06/15 10:08:52;;;;;;;12.18;4.40;;;;;;;25.30;39.17;99889.66;4947041;28;20085;-90
2022/06/15 10:11:49;;;;;;;8.43;5.15;;;;;;;25.19;39.46;99894.00;4993597;28;20046;-92
2022/06/15 10:14:24;;;;;;;5.30;3.97;;;;;;;25.25;38.15;99890.34;4945563;28;20532;-88
2022/06/15 10:17:04;;;;;;;7.80;3.92;;;;;;;25.25;38.89;99884.09;4938696;28;20118;-85
2022/06/15 10:19:33;;;;;;;6.03;4.00;;;;;;;25.29;38.35;99883.41;4954680;28;20473;-88
2022/06/15 10:22:02;;;;;;;8.52;4.53;;;;;;;25.32;39.19;99882.13;4954733;28;20056;-86
2022/06/15 10:24:32;;;;;;;5.38;4.10;;;;;;;25.32;39.57;99885.66;4970734;28;20042;-88
2022/06/15 10:27:17;;;;;;;9.27;4.10;;;;;;;25.30;38.48;99884.22;4965992;28;20133;-86
2022/06/15 10:30:06;;;;;;;6.18;4.10;;;;;;;25.39;39.22;99882.00;4961074;28;20046;-86
2022/06/15 10:32:35;;;;;;;8.63;4.28;;;;;;;25.46;39.29;99880.84;4987166;28;20116;-87
2022/06/15 10:35:02;;;;;;;9.20;4.45;;;;;;;25.49;39.23;99885.00;4969034;28;20069;-86
2022/06/15 10:37:59;;;;;;;6.07;4.03;;;;;;;25.42;38.81;99890.53;4945144;28;20057;-86
2022/06/15 10:40:33;;;;;;;7.35;4.07;;;;;;;25.50;38.27;99875.78;4920110;28;20045;-86
2022/06/15 10:43:06;;;;;;;6.35;4.50;;;;;;;25.60;38.48;99886.94;4988924;28;20528;-87
2022/06/15 10:45:35;;;;;;;;;;;;;;;25.45;38.62;99875.66;4986260;28;20038;-87
2022/06/15 10:48:06;;;;;;;12.82;4.63;;;;;;;25.66;38.80;99871.56;4970253;28;20443;-87
2022/06/15 10:50:47;;;;;;;5.65;4.13;;;;;;;25.63;38.82;99864.69;4961863;28;20137;-87
2022/06/15 11:03:25;;;;;;;8.43;4.70;;;;;;;25.80;38.40;99855.84;4955876;28;20411;-86
2022/06/15 11:05:54;;;;;;;10.20;4.00;;;;;;;25.88;38.82;99855.53;4968266;28;20367;-86
2022/06/15 11:08:29;;;;;;;7.47;4.18;;;;;;;25.98;38.21;99853.88;4972325;28;20046;-90
2022/06/15 11:11:20;;;;;;;7.47;4.68;;;;;;;25.94;38.54;99855.41;4970905;28;20054;-90
2022/06/15 11:14:07;;;;;;;9.15;4.35;;;;;;;25.93;37.68;99855.66;4968210;28;20073;-90
2022/06/15 11:19:25;;;;;;;6.28;4.43;;;;;;;26.06;38.18;99843.72;4932193;28;20046;-90
2022/06/15 11:22:03;;;;;;;6.53;4.07;;;;;;;26.11;37.68;99846.56;4972407;28;20099;-90
2022/06/15 11:24:43;;;;;;;5.28;4.00;;;;;;;26.11;38.26;99844.66;4973637;28;20520;-89
2022/06/15 11:27:31;;;;;;;7.88;3.95;;;;;;;26.12;38.17;99842.75;4974277;28;20071;-91
2022/06/15 11:30:04;;;;;;;8.02;3.85;;;;;;;26.19;37.30;99838.84;4990460;28;20437;-92
2022/06/15 11:32:38;;;;;;;6.13;4.18;;;;;;;26.23;37.03;99835.63;4974866;28;20506;-90
2022/06/15 11:35:18;;;;;;;5.43;4.20;;;;;;;26.20;37.46;99832.34;4957621;28;20046;-89
2022/06/15 11:38:02;;;;;;;10.07;3.60;;;;;;;26.24;36.02;99827.25;4932357;28;20042;-91
2022/06/15 11:40:51;;;;;;;5.10;3.80;;;;;;;26.24;36.34;99835.41;4944177;28;20581;-91
2022/06/15 11:43:24;;;;;;;6.22;3.97;;;;;;;26.31;35.69;99832.56;4926757;28;20120;-90
2022/06/15 11:45:59;;;;;;;;;;;;;;;26.18;36.59;99831.75;4991298;28;20054;-90
2022/06/15 11:48:38;;;;;;;7.15;3.85;;;;;;;26.37;36.73;99831.59;4962203;28;20016;-86
2022/06/15 11:51:44;;;;;;;6.03;4.07;;;;;;;26.41;36.79;99828.16;4977473;28;20530;-88
2022/06/15 11:54:19;;;;;;;5.50;3.97;;;;;;;26.45;35.60;99825.78;4935097;28;20129;-87
2022/06/15 11:57:15;;;;;;;6.80;4.18;;;;;;;26.51;35.66;99818.53;4981633;28;20080;-88
2022/06/15 12:00:13;;;;;;;6.35;3.95;;;;;;;26.56;35.09;99826.84;4908737;28;20461;-87
2022/06/15 12:06:31;;;;;;;6.88;4.35;;;;;;;26.59;35.30;99813.59;4966801;28;20522;-91
2022/06/15 12:09:11;;;;;;;7.78;4.07;;;;;;;26.65;35.02;99810.97;4969829;28;20861;-89
2022/06/15 12:16:12;;;;;;;8.95;4.03;;;;;;;26.68;36.00;99808.56;4970180;28;20065;-86
2022/06/15 12:18:49;;;;;;;5.93;3.97;;;;;;;26.77;35.89;99807.13;4954133;28;20436;-87
2022/06/15 12:21:26;;;;;;;7.47;4.90;;;;;;;26.88;35.17;99815.50;4995085;28;22753;-87
2022/06/15 12:24:09;;;;;;;5.97;4.30;;;;;;;26.90;34.92;99813.38;4982148;28;20051;-87
2022/06/15 12:26:50;;;;;;;5.72;4.13;;;;;;;26.94;35.22;99814.50;4985755;28;20446;-87
2022/06/15 12:29:29;;;;;;;7.32;4.13;;;;;;;26.93;34.94;99812.88;4967211;28;20141;-89
2022/06/15 12:32:28;;;;;;;6.10;4.05;;;;;;;26.94;34.56;99811.78;4956440;28;20050;-90
2022/06/15 12:35:09;;;;;;;4.72;3.97;;;;;;;26.97;34.82;99809.41;4997898;28;20457;-90
2022/06/15 12:37:56;;;;;;;6.97;3.72;;;;;;;27.05;35.20;99806.28;4973579;28;20056;-90
2022/06/15 12:40:39;;;;;;;6.80;4.20;;;;;;;27.11;34.39;99806.38;4972472;28;20061;-89
2022/06/15 12:43:29;;;;;;;7.18;4.35;;;;;;;27.15;33.69;99808.38;4964679;28;20046;-90
2022/06/15 12:46:09;;;;;;;5.47;3.67;;;;;;;27.16;33.45;99804.56;4957535;28;20104;-90
2022/06/15 12:48:42;;;;;;;4.70;3.70;;;;;;;27.24;34.22;99800.66;4953219;28;20042;-89
2022/06/15 12:51:24;;;;;;;7.40;3.70;;;;;;;27.21;34.38;99798.41;4948421;28;20101;-90
2022/06/15 12:54:04;;;;;;;7.85;4.22;;;;;;;27.20;34.29;99797.59;4974903;28;20134;-90
2022/06/15 12:56:40;;;;;;;7.15;4.00;;;;;;;27.30;33.89;99798.81;4935765;28;20054;-88
2022/06/15 12:59:20;;;;;;;5.07;3.58;;;;;;;27.42;34.11;99800.41;4983320;28;20077;-89